BIKF/KEF METAR and TAF weather

Enter ICAO airport designator
Station Type Date Time Source
BIKF METAR 2021/09/16 21:30 UTC NOAA

BIKF 162130Z 31006KT 9999 FEW025 BKN032 BKN070 08/05 Q0994


Station Type Date Time Source
BIKF Decoded METAR 2021/09/16 21:30 UTC NOAA

Keflavikurflugvollur, Iceland (BIKF) 63-58N 022-36W 54M
Sep 16, 2021 - 05:30 PM EDT / 2021.09.16 2130 UTC
Wind: from the NW (310 degrees) at 7 MPH (6 KT):0
Visibility: greater than 7 mile(s):0
Sky conditions: mostly cloudy
Temperature: 46 F (8 C)
Dew Point: 41 F (5 C)
Relative Humidity: 81%
Pressure (altimeter): 29.35 in. Hg (0994 hPa)
ob: BIKF 162130Z 31006KT 9999 FEW025 BKN032 BKN070 08/05 Q0994
cycle: 21

Station Type Date Time Source
BIKF TAF 2021/09/16 21:39 UTC NOAA

TAF TAF BIKF 161937Z 1621/1721 32008KT 9999 SCT015 BKN025 TX09/1714Z TN06/1706Z
BECMG 1622/1700 33020G30KT
BECMG 1705/1707 30010KT SCT025

Example: see airport list